createdAt,value
2022-12-11T00:02:05.887Z,-1.33
2022-12-11T00:04:32.492Z,-1.40
2022-12-11T00:06:59.119Z,-1.38
2022-12-11T00:09:25.800Z,-1.35
2022-12-11T00:11:52.372Z,-1.40
2022-12-11T00:14:18.954Z,-1.30
2022-12-11T00:16:48.455Z,-1.39
2022-12-11T00:19:15.733Z,-1.49
2022-12-11T00:21:42.471Z,-1.48
2022-12-11T00:24:09.060Z,-1.53
2022-12-11T00:26:35.606Z,-1.51
2022-12-11T00:29:02.109Z,-1.51
2022-12-11T00:31:28.666Z,-1.56
2022-12-11T00:33:55.210Z,-1.66
2022-12-11T00:36:24.368Z,-1.56
2022-12-11T00:38:51.908Z,-1.59
2022-12-11T00:41:18.907Z,-1.58
2022-12-11T00:43:45.847Z,-1.70
2022-12-11T00:46:12.779Z,-1.65
2022-12-11T00:48:40.030Z,-1.73
2022-12-11T00:51:07.284Z,-1.73
2022-12-11T00:53:33.852Z,-1.75
2022-12-11T00:56:00.392Z,-1.80
2022-12-11T00:58:27.101Z,-1.75
2022-12-11T01:00:53.805Z,-1.67
2022-12-11T01:03:20.415Z,-1.66
2022-12-11T01:05:55.807Z,-1.67
2022-12-11T01:08:22.481Z,-1.66
2022-12-11T01:10:49.159Z,-1.81
2022-12-11T01:13:16.045Z,-1.67
2022-12-11T01:15:45.247Z,-1.72
2022-12-11T01:18:13.961Z,-1.79
2022-12-11T01:20:42.663Z,-1.80
2022-12-11T01:23:13.166Z,-1.98
2022-12-11T01:25:40.277Z,-1.83
2022-12-11T01:28:07.433Z,-1.74
2022-12-11T01:30:34.608Z,-1.83
2022-12-11T01:33:01.313Z,-1.80
2022-12-11T01:35:28.228Z,-1.69
2022-12-11T01:37:54.930Z,-1.70
2022-12-11T01:40:22.142Z,-1.72
2022-12-11T01:42:48.726Z,-1.87
2022-12-11T01:45:21.393Z,-1.77
2022-12-11T01:48:00.415Z,-1.86
2022-12-11T01:50:28.823Z,-1.78
2022-12-11T01:52:55.428Z,-1.86
2022-12-11T01:55:22.125Z,-1.88
2022-12-11T01:57:50.657Z,-1.90
2022-12-11T02:00:18.123Z,-1.84
2022-12-11T02:02:45.378Z,-1.80
2022-12-11T02:05:12.965Z,-1.89
2022-12-11T02:07:48.424Z,-1.74
2022-12-11T02:10:15.359Z,-1.91
2022-12-11T02:12:59.414Z,-1.97
2022-12-11T02:15:32.521Z,-1.86
2022-12-11T02:18:02.132Z,-2.01
2022-12-11T02:20:37.279Z,-1.78
2022-12-11T02:23:21.413Z,-1.95
2022-12-11T02:26:09.517Z,-1.97
2022-12-11T02:28:57.445Z,-1.95
2022-12-11T02:31:27.553Z,-1.87
2022-12-11T02:34:08.596Z,-1.91
2022-12-11T02:36:41.827Z,-1.92
2022-12-11T02:39:13.039Z,-1.88
2022-12-11T02:41:45.021Z,-1.92
2022-12-11T02:44:15.731Z,-2.04
2022-12-11T02:46:44.378Z,-2.04
2022-12-11T02:49:13.446Z,-2.04
2022-12-11T02:51:42.111Z,-2.03
2022-12-11T02:54:14.049Z,-2.08
2022-12-11T02:56:47.981Z,-2.02
2022-12-11T02:59:23.825Z,-2.00
2022-12-11T03:01:50.653Z,-2.10
2022-12-11T03:04:17.551Z,-2.09
2022-12-11T03:06:50.214Z,-2.16
2022-12-11T03:09:17.631Z,-2.11
2022-12-11T03:11:44.129Z,-1.97
2022-12-11T03:14:11.447Z,-1.95
2022-12-11T03:17:14.975Z,-1.97
2022-12-11T03:20:04.798Z,-1.99
2022-12-11T03:22:44.091Z,-1.99
2022-12-11T03:25:17.182Z,-2.03
2022-12-11T03:28:01.580Z,-2.02
2022-12-11T03:30:29.213Z,-2.12
2022-12-11T03:33:01.147Z,-2.11
2022-12-11T03:35:39.033Z,-2.09
2022-12-11T03:38:10.920Z,-2.17
2022-12-11T03:40:42.411Z,-2.13
2022-12-11T03:43:11.224Z,-2.29
2022-12-11T03:45:39.690Z,-2.25
2022-12-11T03:48:09.471Z,-2.29
2022-12-11T03:50:36.676Z,-2.23
2022-12-11T03:53:04.816Z,-2.23
2022-12-11T03:55:33.709Z,-2.31
2022-12-11T03:58:00.266Z,-2.39
2022-12-11T04:00:27.033Z,-2.35
2022-12-11T04:03:13.925Z,-2.46
2022-12-11T04:05:46.281Z,-2.31
2022-12-11T04:08:13.657Z,-2.29
2022-12-11T04:10:41.219Z,-2.35
2022-12-11T04:13:08.539Z,-2.32
2022-12-11T04:15:35.523Z,-2.40
2022-12-11T04:18:28.578Z,-2.29
2022-12-11T04:21:14.973Z,-2.22
2022-12-11T04:24:00.130Z,-2.23
2022-12-11T04:26:26.977Z,-2.26
2022-12-11T04:28:53.521Z,-2.25
2022-12-11T04:31:22.205Z,-2.33
2022-12-11T04:33:49.033Z,-2.26
2022-12-11T04:36:16.249Z,-2.17
2022-12-11T04:38:42.782Z,-2.18
2022-12-11T04:41:11.978Z,-2.31
2022-12-11T04:43:39.216Z,-2.25
2022-12-11T04:46:08.852Z,-2.25
2022-12-11T04:48:37.171Z,-2.40
2022-12-11T04:51:04.041Z,-2.30
2022-12-11T04:53:31.076Z,-2.24
2022-12-11T04:55:57.986Z,-2.21
2022-12-11T04:58:26.256Z,-2.26
2022-12-11T05:00:53.431Z,-2.41
2022-12-11T05:03:20.616Z,-2.29
2022-12-11T05:05:51.684Z,-2.25
2022-12-11T05:08:19.895Z,-2.31
2022-12-11T05:10:59.156Z,-2.25
2022-12-11T05:13:27.632Z,-2.34
2022-12-11T05:15:54.552Z,-2.29
2022-12-11T05:18:21.341Z,-2.29
2022-12-11T05:20:58.793Z,-2.27
2022-12-11T05:23:26.142Z,-2.29
2022-12-11T05:25:57.936Z,-2.36
2022-12-11T05:28:27.585Z,-2.51
2022-12-11T05:31:05.872Z,-2.57
2022-12-11T05:33:32.891Z,-2.58
2022-12-11T05:35:59.481Z,-2.70
2022-12-11T05:38:26.371Z,-2.57
2022-12-11T05:41:04.940Z,-2.62
2022-12-11T05:43:34.574Z,-2.65
2022-12-11T05:46:12.117Z,-2.77
2022-12-11T05:48:39.088Z,-2.77
2022-12-11T05:51:06.977Z,-2.83
2022-12-11T05:53:33.493Z,-2.83
2022-12-11T05:56:13.978Z,-2.85
2022-12-11T05:58:41.882Z,-2.79
2022-12-11T06:01:14.526Z,-2.84
2022-12-11T06:03:41.065Z,-2.90
2022-12-11T06:06:08.451Z,-2.80
2022-12-11T06:08:35.362Z,-2.95
2022-12-11T06:11:02.583Z,-3.05
2022-12-11T06:13:29.160Z,-3.01
2022-12-11T06:15:59.517Z,-3.02
2022-12-11T06:18:26.287Z,-2.98
2022-12-11T06:20:52.822Z,-2.99
2022-12-11T06:23:19.353Z,-2.99
2022-12-11T06:25:45.873Z,-3.00
2022-12-11T06:28:12.454Z,-3.02
2022-12-11T06:30:39.662Z,-3.12
2022-12-11T06:33:06.750Z,-3.11
2022-12-11T06:35:40.105Z,-3.13
2022-12-11T06:38:08.822Z,-3.13
2022-12-11T06:40:35.452Z,-3.21
2022-12-11T06:43:01.985Z,-3.20
2022-12-11T06:45:28.592Z,-3.19
2022-12-11T06:47:55.716Z,-3.27
2022-12-11T06:50:22.309Z,-3.17
2022-12-11T06:52:48.836Z,-3.14
2022-12-11T06:55:15.476Z,-3.19
2022-12-11T06:57:42.016Z,-3.19
2022-12-11T07:00:09.381Z,-3.26
2022-12-11T07:02:35.937Z,-3.37
2022-12-11T07:05:02.648Z,-3.33
2022-12-11T07:07:29.178Z,-3.16
2022-12-11T07:09:55.658Z,-3.27
2022-12-11T07:12:22.216Z,-3.11
2022-12-11T07:14:48.715Z,-3.11
2022-12-11T07:17:15.259Z,-3.01
2022-12-11T07:19:41.834Z,-2.96
2022-12-11T07:22:08.356Z,-2.95
2022-12-11T07:24:34.837Z,-2.94
2022-12-11T07:27:01.371Z,-3.01
2022-12-11T07:29:27.977Z,-3.06
2022-12-11T07:31:54.613Z,-3.05
2022-12-11T07:34:21.220Z,-3.11
2022-12-11T07:36:47.808Z,-3.18
2022-12-11T07:39:14.367Z,-3.21
2022-12-11T07:41:40.955Z,-3.06
2022-12-11T07:44:07.524Z,-3.16
2022-12-11T07:46:34.307Z,-3.29
2022-12-11T07:49:01.366Z,-3.36
2022-12-11T07:51:33.391Z,-3.24
2022-12-11T07:54:02.693Z,-3.30
2022-12-11T07:56:30.367Z,-3.20
2022-12-11T07:58:59.964Z,-3.22
2022-12-11T08:01:28.408Z,-3.14
2022-12-11T08:03:56.152Z,-3.20
2022-12-11T08:06:28.784Z,-3.19
2022-12-11T08:08:56.746Z,-3.21
2022-12-11T08:11:23.369Z,-3.13
2022-12-11T08:13:49.978Z,-3.21
2022-12-11T08:16:17.843Z,-3.22
2022-12-11T08:18:46.139Z,-3.19
2022-12-11T08:21:24.206Z,-3.19
2022-12-11T08:23:52.125Z,-3.23
2022-12-11T08:26:24.773Z,-3.18
2022-12-11T08:28:51.517Z,-3.17
2022-12-11T08:31:19.514Z,-3.17
2022-12-11T08:33:46.300Z,-3.25
2022-12-11T08:36:16.824Z,-3.24
2022-12-11T08:38:43.710Z,-3.10
2022-12-11T08:41:25.143Z,-3.06
2022-12-11T08:43:55.334Z,-3.01
2022-12-11T08:46:24.428Z,-3.18
2022-12-11T08:48:51.451Z,-3.24
2022-12-11T08:51:20.781Z,-3.27
2022-12-11T08:53:47.372Z,-3.36
2022-12-11T08:56:19.211Z,-3.44
2022-12-11T08:58:46.440Z,-3.40
2022-12-11T09:01:18.381Z,-3.30
2022-12-11T09:03:45.008Z,-3.28
2022-12-11T09:06:15.094Z,-3.28
2022-12-11T09:08:45.998Z,-3.20
2022-12-11T09:11:20.191Z,-3.16
2022-12-11T09:13:47.061Z,-3.22
2022-12-11T09:16:16.370Z,-3.24
2022-12-11T09:18:45.068Z,-3.15
2022-12-11T09:21:14.603Z,-3.08
2022-12-11T09:23:42.079Z,-3.09
2022-12-11T09:26:17.613Z,-3.11
2022-12-11T09:28:47.049Z,-3.08
2022-12-11T09:31:24.228Z,-3.12
2022-12-11T09:33:52.390Z,-3.36
2022-12-11T09:36:19.045Z,-3.08
2022-12-11T09:38:46.078Z,-3.17
2022-12-11T09:41:21.805Z,-3.12
2022-12-11T09:43:48.319Z,-3.05
2022-12-11T09:46:17.104Z,-2.84
2022-12-11T09:48:48.207Z,-2.76
2022-12-11T09:51:36.570Z,-2.91
2022-12-11T09:54:06.670Z,-2.83
2022-12-11T09:56:39.528Z,-2.92
2022-12-11T09:59:13.451Z,-2.84
2022-12-11T10:02:03.258Z,-2.81
2022-12-11T10:05:04.484Z,-2.72
2022-12-11T10:07:36.507Z,-2.67
2022-12-11T10:10:17.536Z,-2.69
2022-12-11T10:12:57.524Z,-2.66
2022-12-11T10:15:32.986Z,-2.71
2022-12-11T10:18:04.863Z,-2.51
2022-12-11T10:20:39.376Z,-2.46
2022-12-11T10:23:18.150Z,-2.55
2022-12-11T10:26:02.693Z,-2.59
2022-12-11T10:28:30.006Z,-2.53
2022-12-11T10:31:02.554Z,-2.23
2022-12-11T10:33:44.096Z,-2.09
2022-12-11T10:36:13.231Z,-2.20
2022-12-11T10:38:45.568Z,-1.78
2022-12-11T10:41:14.762Z,-1.87
2022-12-11T10:43:46.158Z,-1.94
2022-12-11T10:46:17.780Z,-1.94
2022-12-11T10:48:50.754Z,-1.94
2022-12-11T10:51:17.708Z,-2.15
2022-12-11T10:53:50.516Z,-1.64
2022-12-11T10:56:26.098Z,-2.03
2022-12-11T10:58:52.832Z,-1.85
2022-12-11T11:01:26.067Z,-1.81
2022-12-11T11:03:58.776Z,-2.07
2022-12-11T11:06:27.164Z,-2.08
2022-12-11T11:08:57.601Z,-2.02
2022-12-11T11:11:34.283Z,-1.92
2022-12-11T11:14:11.992Z,-2.27
2022-12-11T11:16:41.320Z,-2.24
2022-12-11T11:19:17.501Z,-1.96
2022-12-11T11:21:53.924Z,-1.72
2022-12-11T11:24:43.419Z,-1.92
2022-12-11T11:27:14.375Z,-1.75
2022-12-11T11:29:42.184Z,-1.96
2022-12-11T11:32:23.024Z,-2.12
2022-12-11T11:34:49.625Z,-1.96
2022-12-11T11:37:31.612Z,-2.28
2022-12-11T11:40:05.919Z,-2.40
2022-12-11T11:42:45.763Z,-2.30
2022-12-11T11:45:24.967Z,-2.35
2022-12-11T11:48:18.253Z,-2.36
2022-12-11T11:50:50.480Z,-2.26
2022-12-11T11:53:27.065Z,-2.19
2022-12-11T11:56:23.529Z,-2.00
2022-12-11T11:59:08.555Z,-1.94
2022-12-11T12:01:35.239Z,-1.78
2022-12-11T12:04:03.935Z,-1.96
2022-12-11T12:06:50.545Z,-1.79
2022-12-11T12:09:39.414Z,-1.45
2022-12-11T12:12:24.695Z,-1.29
2022-12-11T12:15:04.711Z,-1.19
2022-12-11T12:17:55.089Z,-1.65
2022-12-11T12:20:37.330Z,-2.10
2022-12-11T12:23:20.594Z,-2.03
2022-12-11T12:26:01.566Z,-1.91
2022-12-11T12:28:41.842Z,-2.12
2022-12-11T12:31:32.459Z,-2.15
2022-12-11T12:34:37.999Z,-2.08
2022-12-11T12:37:13.488Z,-1.97
2022-12-11T12:40:13.213Z,-2.08
2022-12-11T12:42:51.834Z,-2.14
2022-12-11T12:45:36.976Z,-2.23
2022-12-11T12:48:03.706Z,-2.38
2022-12-11T12:50:38.568Z,-2.22
2022-12-11T12:53:07.493Z,-2.07
2022-12-11T12:55:35.868Z,-2.19
2022-12-11T12:58:05.594Z,-2.21
2022-12-11T13:00:43.971Z,-2.21
2022-12-11T13:03:30.420Z,-2.39
2022-12-11T13:06:08.034Z,-2.48
2022-12-11T13:08:42.300Z,-2.39
2022-12-11T13:11:12.100Z,-2.36
2022-12-11T13:13:38.562Z,-2.37
2022-12-11T13:16:08.405Z,-2.40
2022-12-11T13:18:37.455Z,-2.29
2022-12-11T13:21:29.625Z,-2.32
2022-12-11T13:24:14.280Z,-2.70
2022-12-11T13:26:41.818Z,-2.83
2022-12-11T13:29:35.674Z,-2.76
2022-12-11T13:32:23.244Z,-2.85
2022-12-11T13:34:58.584Z,-2.71
2022-12-11T13:37:34.827Z,-2.79
2022-12-11T13:40:05.675Z,-2.82
2022-12-11T13:42:33.924Z,-2.79
2022-12-11T13:45:01.660Z,-2.72
2022-12-11T13:47:31.487Z,-2.57
2022-12-11T13:50:04.889Z,-2.49
2022-12-11T13:52:32.692Z,-2.58
2022-12-11T13:54:59.740Z,-2.56
2022-12-11T13:57:28.693Z,-2.52
2022-12-11T13:59:59.574Z,-2.63
2022-12-11T14:02:35.840Z,-2.71
2022-12-11T14:05:06.907Z,-2.80
2022-12-11T14:07:37.847Z,-2.77
2022-12-11T14:10:28.479Z,-2.88
2022-12-11T14:13:27.325Z,-2.81
2022-12-11T14:15:54.728Z,-2.65
2022-12-11T14:18:24.827Z,-2.78
2022-12-11T14:21:06.252Z,-2.79
2022-12-11T14:23:37.408Z,-2.82
2022-12-11T14:26:21.519Z,-2.90
2022-12-11T14:28:48.396Z,-3.07
2022-12-11T14:31:21.787Z,-3.02
2022-12-11T14:33:54.681Z,-3.09
2022-12-11T14:36:22.756Z,-3.22
2022-12-11T14:39:00.921Z,-3.22
2022-12-11T14:41:48.101Z,-3.20
2022-12-11T14:44:17.139Z,-3.14
2022-12-11T14:46:47.720Z,-3.05
2022-12-11T14:49:46.105Z,-3.06
2022-12-11T14:52:24.622Z,-3.15
2022-12-11T14:54:57.030Z,-3.11
2022-12-11T14:57:27.298Z,-3.19
2022-12-11T14:59:56.566Z,-3.31
2022-12-11T15:02:27.679Z,-3.23
2022-12-11T15:05:10.725Z,-3.27
2022-12-11T15:07:37.563Z,-3.33
2022-12-11T15:10:04.959Z,-3.38
2022-12-11T15:12:32.070Z,-3.29
2022-12-11T15:15:00.941Z,-3.35
2022-12-11T15:17:28.718Z,-3.43
2022-12-11T15:20:02.684Z,-3.27
2022-12-11T15:22:32.254Z,-3.25
2022-12-11T15:24:59.909Z,-3.35
2022-12-11T15:27:38.620Z,-3.27
2022-12-11T15:30:21.910Z,-3.27
2022-12-11T15:32:48.589Z,-3.27
2022-12-11T15:35:27.517Z,-3.24
2022-12-11T15:37:56.184Z,-3.25
2022-12-11T15:40:23.602Z,-3.32
2022-12-11T15:42:50.957Z,-3.27
2022-12-11T15:45:22.210Z,-3.27
2022-12-11T15:47:50.632Z,-3.22
2022-12-11T15:50:25.392Z,-3.17
2022-12-11T15:52:54.367Z,-3.29
2022-12-11T15:55:22.835Z,-3.34
2022-12-11T15:57:54.084Z,-3.53
2022-12-11T16:00:21.792Z,-3.38
2022-12-11T16:02:48.441Z,-3.41
2022-12-11T16:05:15.135Z,-3.33
2022-12-11T16:07:42.230Z,-3.35
2022-12-11T16:10:14.575Z,-3.43
2022-12-11T16:12:42.044Z,-3.41
2022-12-11T16:15:09.393Z,-3.56
2022-12-11T16:17:36.321Z,-3.40
2022-12-11T16:20:03.435Z,-3.41
2022-12-11T16:22:29.983Z,-3.42
2022-12-11T16:24:56.737Z,-3.41
2022-12-11T16:27:23.586Z,-3.41
2022-12-11T16:29:50.305Z,-3.49
2022-12-11T16:32:16.850Z,-3.37
2022-12-11T16:34:43.488Z,-3.54
2022-12-11T16:37:10.568Z,-3.34
2022-12-11T16:39:38.336Z,-3.32
2022-12-11T16:42:05.915Z,-3.40
2022-12-11T16:44:32.758Z,-3.42
2022-12-11T16:46:59.361Z,-3.48
2022-12-11T16:49:25.940Z,-3.49
2022-12-11T16:51:52.501Z,-3.40
2022-12-11T16:54:19.189Z,-3.47
2022-12-11T16:56:45.713Z,-3.55
2022-12-11T16:59:12.955Z,-3.37
2022-12-11T17:01:39.971Z,-3.56
2022-12-11T17:04:06.726Z,-3.46
2022-12-11T17:06:33.611Z,-3.50
2022-12-11T17:09:00.163Z,-3.40
2022-12-11T17:11:27.095Z,-3.31
2022-12-11T17:13:55.678Z,-3.41
2022-12-11T17:16:24.958Z,-3.35
2022-12-11T17:18:52.040Z,-3.57
2022-12-11T17:21:20.565Z,-3.45
2022-12-11T17:23:47.118Z,-3.40
2022-12-11T17:26:13.828Z,-3.53
2022-12-11T17:28:40.613Z,-3.44
2022-12-11T17:31:08.958Z,-3.41
2022-12-11T17:33:35.696Z,-3.36
2022-12-11T17:36:04.439Z,-3.46
2022-12-11T17:38:31.562Z,-3.58
2022-12-11T17:40:58.571Z,-3.40
2022-12-11T17:43:25.383Z,-3.44
2022-12-11T17:45:53.028Z,-3.48
2022-12-11T17:48:22.458Z,-3.55
2022-12-11T17:50:51.214Z,-3.50
2022-12-11T17:53:19.166Z,-3.43
2022-12-11T17:55:46.693Z,-3.46
2022-12-11T17:58:17.797Z,-3.50
2022-12-11T18:00:46.449Z,-3.57
2022-12-11T18:03:13.523Z,-3.43
2022-12-11T18:05:45.172Z,-3.45
2022-12-11T18:08:17.150Z,-3.37
2022-12-11T18:10:44.563Z,-3.39
2022-12-11T18:13:11.649Z,-3.32
2022-12-11T18:15:38.618Z,-3.26
2022-12-11T18:18:06.735Z,-3.34
2022-12-11T18:20:34.573Z,-3.41
2022-12-11T18:23:01.928Z,-3.22
2022-12-11T18:25:28.623Z,-3.27
2022-12-11T18:27:55.791Z,-3.50
2022-12-11T18:30:23.844Z,-3.31
2022-12-11T18:32:50.862Z,-3.26
2022-12-11T18:35:18.259Z,-3.31
2022-12-11T18:37:44.884Z,-3.36
2022-12-11T18:40:14.501Z,-3.39
2022-12-11T18:42:41.130Z,-3.26
2022-12-11T18:45:08.292Z,-3.29
2022-12-11T18:47:34.802Z,-3.36
2022-12-11T18:50:07.415Z,-3.43
2022-12-11T18:52:34.974Z,-3.37
2022-12-11T18:55:01.965Z,-3.31
2022-12-11T18:57:28.507Z,-3.35
2022-12-11T18:59:55.146Z,-3.35
2022-12-11T19:02:22.489Z,-3.43
2022-12-11T19:04:49.257Z,-3.48
2022-12-11T19:07:15.822Z,-3.43
2022-12-11T19:09:47.588Z,-3.36
2022-12-11T19:12:14.849Z,-3.45
2022-12-11T19:14:41.492Z,-3.29
2022-12-11T19:17:08.111Z,-3.47
2022-12-11T19:19:35.818Z,-3.36
2022-12-11T19:22:02.731Z,-3.49
2022-12-11T19:24:29.324Z,-3.38
2022-12-11T19:26:55.874Z,-3.33
2022-12-11T19:29:28.275Z,-3.28
2022-12-11T19:31:55.811Z,-3.46
2022-12-11T19:34:22.829Z,-3.41
2022-12-11T19:36:49.949Z,-3.26
2022-12-11T19:39:17.144Z,-3.40
2022-12-11T19:41:43.947Z,-3.37
2022-12-11T19:44:10.595Z,-3.40
2022-12-11T19:46:37.493Z,-3.43
2022-12-11T19:49:04.366Z,-3.47
2022-12-11T19:51:38.566Z,-3.28
2022-12-11T19:54:10.104Z,-3.35
2022-12-11T19:56:36.775Z,-3.48
2022-12-11T19:59:05.595Z,-3.50
2022-12-11T20:01:34.195Z,-3.58
2022-12-11T20:04:03.994Z,-3.65
2022-12-11T20:06:32.733Z,-3.61
2022-12-11T20:08:59.789Z,-3.52
2022-12-11T20:11:26.524Z,-3.59
2022-12-11T20:13:55.551Z,-3.54
2022-12-11T20:16:39.517Z,-3.42
2022-12-11T20:19:08.793Z,-3.53
2022-12-11T20:21:35.342Z,-3.43
2022-12-11T20:24:02.048Z,-3.55
2022-12-11T20:26:30.982Z,-3.44
2022-12-11T20:28:57.767Z,-3.43
2022-12-11T20:31:25.825Z,-3.55
2022-12-11T20:33:53.799Z,-3.49
2022-12-11T20:36:21.537Z,-3.47
2022-12-11T20:38:48.413Z,-3.52
2022-12-11T20:41:18.902Z,-3.69
2022-12-11T20:43:45.828Z,-3.46
2022-12-11T20:46:14.948Z,-3.50
2022-12-11T20:48:42.784Z,-3.65
2022-12-11T20:51:11.979Z,-3.63
2022-12-11T20:53:39.037Z,-3.57
2022-12-11T20:56:16.113Z,-3.63
2022-12-11T20:58:43.713Z,-3.62
2022-12-11T21:01:18.549Z,-3.65
2022-12-11T21:03:45.217Z,-3.59
2022-12-11T21:06:25.862Z,-3.64
2022-12-11T21:08:53.338Z,-3.55
2022-12-11T21:11:20.989Z,-3.68
2022-12-11T21:13:47.522Z,-3.61
2022-12-11T21:16:14.298Z,-3.58
2022-12-11T21:18:41.649Z,-3.60
2022-12-11T21:21:08.191Z,-3.77
2022-12-11T21:23:35.202Z,-3.64
2022-12-11T21:26:01.920Z,-3.61
2022-12-11T21:28:34.956Z,-3.45
2022-12-11T21:31:07.281Z,-3.60
2022-12-11T21:33:35.018Z,-3.67
2022-12-11T21:36:01.874Z,-3.73
2022-12-11T21:38:29.414Z,-3.64
2022-12-11T21:40:56.614Z,-3.65
2022-12-11T21:43:23.868Z,-3.54
2022-12-11T21:46:06.101Z,-3.54
2022-12-11T21:48:32.930Z,-3.64
2022-12-11T21:51:08.510Z,-3.58
2022-12-11T21:53:35.405Z,-3.61
2022-12-11T21:56:05.978Z,-3.72
2022-12-11T21:58:32.783Z,-3.75
2022-12-11T22:00:59.343Z,-3.71
2022-12-11T22:03:25.859Z,-3.66
2022-12-11T22:05:52.499Z,-3.60
2022-12-11T22:08:19.150Z,-3.57
2022-12-11T22:10:45.835Z,-3.60
2022-12-11T22:13:12.383Z,-3.67
2022-12-11T22:15:39.001Z,-3.59
2022-12-11T22:18:05.585Z,-3.59
2022-12-11T22:20:32.253Z,-3.65
2022-12-11T22:22:58.870Z,-3.59
2022-12-11T22:25:25.498Z,-3.60
2022-12-11T22:27:51.985Z,-3.51
2022-12-11T22:30:18.614Z,-3.62
2022-12-11T22:32:45.321Z,-3.57
2022-12-11T22:35:12.349Z,-3.74
2022-12-11T22:37:39.153Z,-3.60
2022-12-11T22:40:06.452Z,-3.65
2022-12-11T22:42:33.470Z,-3.60
2022-12-11T22:45:00.005Z,-3.52
2022-12-11T22:47:26.710Z,-3.57
2022-12-11T22:49:53.303Z,-3.56
2022-12-11T22:52:19.995Z,-3.57
2022-12-11T22:54:46.609Z,-3.55
2022-12-11T22:57:14.270Z,-3.61
2022-12-11T22:59:41.087Z,-3.73
2022-12-11T23:02:07.793Z,-3.56
2022-12-11T23:04:34.353Z,-3.67
2022-12-11T23:07:00.895Z,-3.60
2022-12-11T23:09:28.664Z,-3.65
2022-12-11T23:11:55.833Z,-3.63
2022-12-11T23:14:22.344Z,-3.61
2022-12-11T23:16:48.931Z,-3.58
2022-12-11T23:19:18.557Z,-3.65
2022-12-11T23:21:48.900Z,-3.47
2022-12-11T23:24:15.479Z,-3.56
2022-12-11T23:26:42.097Z,-3.49
2022-12-11T23:29:08.773Z,-3.61
2022-12-11T23:31:37.104Z,-3.61
2022-12-11T23:34:05.111Z,-3.57
2022-12-11T23:36:32.513Z,-3.57
2022-12-11T23:39:00.299Z,-3.56
2022-12-11T23:41:26.890Z,-3.59
2022-12-11T23:43:53.479Z,-3.59
2022-12-11T23:46:23.133Z,-3.51
2022-12-11T23:48:50.620Z,-3.52
2022-12-11T23:51:19.362Z,-3.49
2022-12-11T23:53:46.438Z,-3.57
2022-12-11T23:56:16.764Z,-3.56
2022-12-11T23:58:43.329Z,-3.50
